createdAt,value
2023-04-11T00:02:18.128Z,11.20
2023-04-11T00:06:21.046Z,11.20
2023-04-11T00:10:23.884Z,11.10
2023-04-11T00:14:28.754Z,11.00
2023-04-11T00:18:36.079Z,11.00
2023-04-11T00:22:39.018Z,10.90
2023-04-11T00:26:41.822Z,10.80
2023-04-11T00:30:44.797Z,10.80
2023-04-11T00:34:48.904Z,10.80
2023-04-11T00:38:51.691Z,10.80
2023-04-11T00:42:54.498Z,10.80
2023-04-11T00:46:57.363Z,10.80
2023-04-11T00:51:01.962Z,10.80
2023-04-11T00:55:04.984Z,10.70
2023-04-11T00:59:07.800Z,10.70
2023-04-11T01:03:11.933Z,10.70
2023-04-11T01:07:17.273Z,10.70
2023-04-11T01:11:20.300Z,10.70
2023-04-11T01:15:23.194Z,10.70
2023-04-11T01:19:26.669Z,10.70
2023-04-11T01:23:30.850Z,10.60
2023-04-11T01:27:34.197Z,10.60
2023-04-11T01:31:37.030Z,10.60
2023-04-11T01:35:39.886Z,10.60
2023-04-11T01:39:44.352Z,10.60
2023-04-11T01:43:47.266Z,10.60
2023-04-11T01:47:51.003Z,10.50
2023-04-11T01:51:53.980Z,10.50
2023-04-11T01:55:58.198Z,10.50
2023-04-11T02:00:01.218Z,10.40
2023-04-11T02:04:04.238Z,10.50
2023-04-11T02:08:07.191Z,10.50
2023-04-11T02:12:11.471Z,10.40
2023-04-11T02:16:15.340Z,10.40
2023-04-11T02:20:18.356Z,10.40
2023-04-11T02:24:21.139Z,10.40
2023-04-11T02:28:25.429Z,10.40
2023-04-11T02:32:30.464Z,10.40
2023-04-11T02:36:34.080Z,10.40
2023-04-11T02:40:36.838Z,10.40
2023-04-11T02:44:41.049Z,10.40
2023-04-11T02:48:43.867Z,10.30
2023-04-11T02:52:49.359Z,10.10
2023-04-11T02:56:52.753Z,9.80
2023-04-11T03:00:57.193Z,9.60
2023-04-11T03:05:03.853Z,9.40
2023-04-11T03:09:06.856Z,9.30
2023-04-11T03:13:09.836Z,9.20
2023-04-11T03:17:14.157Z,9.20
2023-04-11T03:21:17.108Z,9.10
2023-04-11T03:25:20.099Z,9.00
2023-04-11T03:29:22.902Z,8.90
2023-04-11T03:33:27.308Z,8.90
2023-04-11T03:37:30.287Z,8.90
2023-04-11T03:41:33.383Z,8.80
2023-04-11T03:45:36.408Z,8.80
2023-04-11T03:49:40.834Z,8.70
2023-04-11T03:53:43.839Z,8.70
2023-04-11T03:57:46.820Z,8.70
2023-04-11T04:01:49.862Z,8.70
2023-04-11T04:05:54.200Z,8.70
2023-04-11T04:09:57.129Z,8.70
2023-04-11T04:14:00.100Z,8.70
2023-04-11T04:18:03.154Z,8.70
2023-04-11T04:22:11.714Z,8.70
2023-04-11T04:26:16.235Z,8.70
2023-04-11T04:30:19.506Z,8.70
2023-04-11T04:34:24.578Z,8.70
2023-04-11T04:38:29.665Z,8.80
2023-04-11T04:42:32.654Z,8.80
2023-04-11T04:46:36.957Z,8.80
2023-04-11T04:50:39.993Z,8.80
2023-04-11T04:54:44.288Z,8.80
2023-04-11T04:58:47.421Z,8.80
2023-04-11T05:02:50.367Z,8.80
2023-04-11T05:06:53.354Z,8.80
2023-04-11T05:10:57.456Z,8.80
2023-04-11T05:15:00.245Z,8.80
2023-04-11T05:19:03.067Z,8.80
2023-04-11T05:23:05.859Z,8.80
2023-04-11T05:27:10.015Z,8.70
2023-04-11T05:31:12.840Z,8.70
2023-04-11T05:35:15.725Z,8.70
2023-04-11T05:39:18.541Z,8.70
2023-04-11T05:43:22.732Z,8.60
2023-04-11T05:47:25.586Z,8.60
2023-04-11T05:51:28.377Z,8.50
2023-04-11T05:55:31.207Z,8.40
2023-04-11T05:59:36.223Z,8.40
2023-04-11T06:03:39.242Z,8.40
2023-04-11T06:07:42.267Z,8.30
2023-04-11T06:11:45.060Z,8.30
2023-04-11T06:15:49.261Z,8.30
2023-04-11T06:19:52.115Z,8.30
2023-04-11T06:23:55.156Z,8.30
2023-04-11T06:27:58.134Z,8.30
2023-04-11T06:32:02.250Z,8.40
2023-04-11T06:36:06.206Z,8.40
2023-04-11T06:40:09.869Z,8.40
2023-04-11T06:44:12.701Z,8.40
2023-04-11T06:48:17.943Z,8.40
2023-04-11T06:52:20.756Z,8.50
2023-04-11T06:56:23.535Z,8.50
2023-04-11T07:00:26.486Z,8.60
2023-04-11T07:04:31.039Z,8.70
2023-04-11T07:08:34.082Z,8.70
2023-04-11T07:12:36.899Z,8.80
2023-04-11T07:16:39.939Z,8.90
2023-04-11T07:20:44.235Z,9.00
2023-04-11T07:24:47.142Z,9.00
2023-04-11T07:28:50.107Z,9.10
2023-04-11T07:32:53.053Z,9.10
2023-04-11T07:37:00.777Z,9.20
2023-04-11T07:41:04.008Z,9.30
2023-04-11T07:45:07.429Z,9.40
2023-04-11T07:49:10.325Z,9.40
2023-04-11T07:53:14.532Z,9.50
2023-04-11T07:57:17.400Z,9.60
2023-04-11T08:01:20.573Z,9.60
2023-04-11T08:05:23.422Z,9.60
2023-04-11T08:09:27.673Z,9.80
2023-04-11T08:13:30.448Z,9.90
2023-04-11T08:17:38.039Z,10.00
2023-04-11T08:21:41.250Z,10.30
2023-04-11T08:25:45.404Z,10.30
2023-04-11T08:29:48.187Z,10.60
2023-04-11T08:33:51.162Z,10.60
2023-04-11T08:37:53.996Z,10.80
2023-04-11T08:41:58.157Z,10.90
2023-04-11T08:46:02.203Z,11.10
2023-04-11T08:50:05.193Z,11.30
2023-04-11T08:54:08.160Z,11.40
2023-04-11T08:58:12.557Z,11.40
2023-04-11T09:02:15.666Z,11.50
2023-04-11T09:06:18.544Z,11.60
2023-04-11T09:10:21.825Z,11.50
2023-04-11T09:14:27.037Z,11.40
2023-04-11T09:18:34.034Z,11.00
2023-04-11T09:22:37.166Z,10.80
2023-04-11T09:26:40.188Z,10.60
2023-04-11T09:30:52.328Z,10.40
2023-04-11T09:35:08.644Z,10.30
2023-04-11T09:39:18.039Z,10.30
2023-04-11T09:43:20.843Z,10.40
2023-04-11T09:47:25.002Z,10.70
2023-04-11T09:51:35.685Z,11.10
2023-04-11T09:55:39.977Z,11.40
2023-04-11T09:59:43.246Z,11.70
2023-04-11T10:03:51.110Z,12.00
2023-04-11T10:07:56.419Z,12.30
2023-04-11T10:11:59.322Z,12.40
2023-04-11T10:16:06.154Z,12.60
2023-04-11T10:20:24.087Z,12.70
2023-04-11T10:24:28.332Z,12.80
2023-04-11T10:28:32.343Z,12.90
2023-04-11T10:32:35.175Z,12.90
2023-04-11T10:37:02.030Z,13.00
2023-04-11T10:41:17.303Z,13.00
2023-04-11T10:45:27.083Z,12.90
2023-04-11T10:49:33.987Z,12.80
2023-04-11T10:53:38.474Z,12.70
2023-04-11T10:57:56.171Z,12.70
2023-04-11T11:06:05.263Z,13.10
2023-04-11T11:10:08.857Z,13.30
2023-04-11T11:14:11.685Z,13.40
2023-04-11T11:18:16.327Z,13.40
2023-04-11T11:22:25.586Z,13.40
2023-04-11T11:26:39.044Z,13.40
2023-04-11T11:30:51.137Z,13.40
2023-04-11T11:34:57.606Z,13.50
2023-04-11T11:39:00.785Z,13.70
2023-04-11T11:43:03.681Z,13.90
2023-04-11T11:47:07.468Z,13.90
2023-04-11T11:51:11.616Z,14.00
2023-04-11T11:55:29.261Z,14.10
2023-04-11T11:59:32.434Z,14.30
2023-04-11T12:03:38.105Z,14.50
2023-04-11T12:07:42.420Z,14.70
2023-04-11T12:11:45.928Z,14.90
2023-04-11T12:15:52.452Z,15.10
2023-04-11T12:19:56.251Z,15.20
2023-04-11T12:24:02.221Z,15.10
2023-04-11T12:28:05.029Z,15.00
2023-04-11T12:32:07.860Z,14.70
2023-04-11T12:36:11.442Z,14.40
2023-04-11T12:40:15.815Z,14.00
2023-04-11T12:44:18.605Z,13.70
2023-04-11T12:48:21.412Z,13.40
2023-04-11T12:52:25.404Z,13.20
2023-04-11T12:56:29.552Z,13.00
2023-04-11T13:00:32.543Z,12.90
2023-04-11T13:04:35.423Z,13.00
2023-04-11T13:08:38.263Z,13.10
2023-04-11T13:12:44.624Z,13.40
2023-04-11T13:16:48.466Z,13.60
2023-04-11T13:20:51.350Z,13.80
2023-04-11T13:24:54.186Z,13.80
2023-04-11T13:28:58.568Z,13.80
2023-04-11T13:33:01.658Z,13.80
2023-04-11T13:37:04.499Z,13.90
2023-04-11T13:41:07.501Z,13.90
2023-04-11T13:45:12.280Z,14.00
2023-04-11T13:49:15.075Z,14.00
2023-04-11T13:53:17.875Z,13.80
2023-04-11T13:57:21.305Z,13.70
2023-04-11T14:01:25.593Z,13.60
2023-04-11T14:05:28.639Z,13.50
2023-04-11T14:09:31.475Z,13.40
2023-04-11T14:13:34.320Z,13.40
2023-04-11T14:17:38.478Z,13.50
2023-04-11T14:21:41.295Z,13.70
2023-04-11T14:25:44.130Z,13.80
2023-04-11T14:29:47.928Z,14.00
2023-04-11T14:33:53.754Z,14.10
2023-04-11T14:37:57.154Z,14.30
2023-04-11T14:42:01.991Z,14.40
2023-04-11T14:46:04.833Z,14.50
2023-04-11T14:50:09.806Z,14.50
2023-04-11T14:54:12.605Z,14.50
2023-04-11T14:58:16.293Z,14.50
2023-04-11T15:02:19.332Z,14.40
2023-04-11T15:06:23.786Z,14.30
2023-04-11T15:10:26.990Z,14.20
2023-04-11T15:14:30.278Z,14.10
2023-04-11T15:18:33.388Z,13.90
2023-04-11T15:22:39.512Z,13.90
2023-04-11T15:26:44.238Z,13.90
2023-04-11T15:30:48.560Z,13.90
2023-04-11T15:34:51.740Z,13.80
2023-04-11T15:38:57.590Z,13.60
2023-04-11T15:43:01.316Z,13.50
2023-04-11T15:47:04.212Z,13.50
2023-04-11T15:51:10.875Z,13.70
2023-04-11T15:55:15.023Z,14.00
2023-04-11T15:59:17.831Z,14.50
2023-04-11T16:03:20.858Z,14.90
2023-04-11T16:07:25.041Z,15.20
2023-04-11T16:11:29.169Z,15.60
2023-04-11T16:19:35.108Z,16.10
2023-04-11T16:23:37.910Z,16.20
2023-04-11T16:27:42.102Z,16.20
2023-04-11T16:31:44.934Z,16.30
2023-04-11T16:35:47.832Z,16.40
2023-04-11T16:39:51.413Z,16.40
2023-04-11T16:43:56.110Z,16.60
2023-04-11T16:47:59.135Z,16.70
2023-04-11T16:52:02.112Z,16.50
2023-04-11T16:56:05.090Z,16.30
2023-04-11T17:00:13.664Z,16.00
2023-04-11T17:04:16.650Z,15.60
2023-04-11T17:08:19.653Z,15.20
2023-04-11T17:12:22.468Z,15.00
2023-04-11T17:16:26.701Z,14.90
2023-04-11T17:20:29.543Z,14.60
2023-04-11T17:24:32.373Z,14.30
2023-04-11T17:28:35.200Z,14.10
2023-04-11T17:32:39.445Z,13.90
2023-04-11T17:36:43.157Z,13.70
2023-04-11T17:40:46.333Z,13.50
2023-04-11T17:44:49.155Z,13.30
2023-04-11T17:48:53.287Z,13.10
2023-04-11T17:52:56.417Z,12.90
2023-04-11T17:56:59.226Z,12.80
2023-04-11T18:01:03.557Z,12.70
2023-04-11T18:05:22.516Z,12.50
2023-04-11T18:09:31.840Z,12.40
2023-04-11T18:13:34.706Z,12.20
2023-04-11T18:17:37.578Z,12.00
2023-04-11T18:21:41.717Z,11.80
2023-04-11T18:25:44.492Z,11.60
2023-04-11T18:29:51.705Z,11.50
2023-04-11T18:33:54.624Z,11.20
2023-04-11T18:38:00.002Z,11.20
2023-04-11T18:42:03.749Z,11.00
2023-04-11T18:46:07.526Z,10.90
2023-04-11T18:50:10.620Z,10.70
2023-04-11T18:54:14.800Z,10.60
2023-04-11T18:58:18.970Z,10.50
2023-04-11T19:02:22.534Z,10.30
2023-04-11T19:06:25.594Z,10.30
2023-04-11T19:10:30.042Z,10.30
2023-04-11T19:14:33.472Z,10.10
2023-04-11T19:18:36.327Z,10.00
2023-04-11T19:22:40.648Z,9.90
2023-04-11T19:26:44.823Z,9.90
2023-04-11T19:30:47.828Z,9.80
2023-04-11T19:34:50.777Z,9.70
2023-04-11T19:38:53.690Z,9.50
2023-04-11T19:42:57.851Z,9.30
2023-04-11T19:47:00.806Z,9.30
2023-04-11T19:51:03.615Z,9.20
2023-04-11T19:55:07.624Z,9.10
2023-04-11T19:59:11.919Z,9.00
2023-04-11T20:03:15.334Z,8.80
2023-04-11T20:07:18.270Z,8.70
2023-04-11T20:11:21.985Z,8.60
2023-04-11T20:15:26.205Z,8.50
2023-04-11T20:19:29.816Z,8.40
2023-04-11T20:23:33.620Z,8.30
2023-04-11T20:27:36.427Z,8.20
2023-04-11T20:31:40.872Z,7.90
2023-04-11T20:35:43.676Z,7.90
2023-04-11T20:39:46.524Z,7.80
2023-04-11T20:43:49.399Z,7.80
2023-04-11T20:47:54.317Z,7.60
2023-04-11T20:51:58.219Z,7.60
2023-04-11T20:56:01.100Z,7.50
2023-04-11T21:00:07.577Z,7.40
2023-04-11T21:04:11.783Z,7.30
2023-04-11T21:08:14.642Z,7.30
2023-04-11T21:12:17.477Z,7.20
2023-04-11T21:16:20.303Z,7.00
2023-04-11T21:20:24.622Z,6.90
2023-04-11T21:24:27.425Z,6.80
2023-04-11T21:28:30.615Z,6.70
2023-04-11T21:32:33.521Z,6.60
2023-04-11T21:36:37.716Z,6.50
2023-04-11T21:40:40.573Z,6.50
2023-04-11T21:44:43.385Z,6.40
2023-04-11T21:48:46.183Z,6.40
2023-04-11T21:52:50.354Z,6.30
2023-04-11T21:56:53.149Z,6.20
2023-04-11T22:00:55.944Z,6.20
2023-04-11T22:05:06.240Z,6.20
2023-04-11T22:09:11.804Z,6.20
2023-04-11T22:13:15.895Z,6.10
2023-04-11T22:17:18.765Z,6.10
2023-04-11T22:21:21.551Z,6.00
2023-04-11T22:25:25.953Z,6.00
2023-04-11T22:29:30.588Z,6.00
2023-04-11T22:33:33.425Z,5.90
2023-04-11T22:37:36.277Z,5.90
2023-04-11T22:41:40.425Z,5.90
2023-04-11T22:45:43.414Z,5.90
2023-04-11T22:49:46.261Z,5.80
2023-04-11T22:53:49.070Z,5.80
2023-04-11T22:57:53.244Z,5.80
2023-04-11T23:01:56.070Z,5.70
2023-04-11T23:05:58.903Z,5.70
2023-04-11T23:10:04.313Z,5.60
2023-04-11T23:14:08.541Z,5.60
2023-04-11T23:18:11.350Z,5.60
2023-04-11T23:22:14.342Z,5.60
2023-04-11T23:26:22.682Z,5.60
2023-04-11T23:30:26.976Z,5.60
2023-04-11T23:34:29.912Z,5.60
2023-04-11T23:38:32.965Z,5.60
2023-04-11T23:42:36.388Z,5.60
2023-04-11T23:46:40.732Z,5.60
2023-04-11T23:50:43.597Z,5.60
2023-04-11T23:54:46.432Z,5.60
2023-04-11T23:58:49.281Z,5.60
